Time;durP1;ratioP1;P1;durP2;ratioP2;P2;SDS_P1;SDS_P2;PMS_P1;PMS_P2;Temp;Humidity;BMP_temperature;BMP_pressure;BME280_temperature;BME280_humidity;BME280_pressure;Samples;Min_cycle;Max_cycle;Signal;HPM_P1;HPM_P2
2022/12/13 00:18:05;;;;;;;18.50;10.10;;;;;;;-2.83;93.17;97873.48;422123;1282;106649;-39
2022/12/13 00:28:13;;;;;;;18.70;10.90;;;;;;;-2.93;92.82;97879.67;422161;1288;97559;-41
2022/12/13 00:38:20;;;;;;;12.30;8.00;;;;;;;-2.92;92.73;97873.59;422108;1282;108817;-40
2022/12/13 00:48:27;;;;;;;16.50;8.90;;;;;;;-2.89;92.55;97889.81;422193;1287;109404;-40
2022/12/13 00:58:35;;;;;;;15.80;8.80;;;;;;;-2.85;92.83;97894.53;422137;1295;100260;-39
2022/12/13 01:08:41;;;;;;;18.60;9.20;;;;;;;-2.91;92.96;97906.56;422315;1288;107930;-39
2022/12/13 01:18:48;;;;;;;15.30;9.00;;;;;;;-3.00;92.89;97907.52;422115;1294;96683;-38
2022/12/13 01:28:56;;;;;;;13.00;7.80;;;;;;;-3.03;92.56;97907.03;422140;1287;97879;-40
2022/12/13 01:39:03;;;;;;;17.10;8.50;;;;;;;-2.93;92.70;97908.64;422020;1295;107853;-38
2022/12/13 01:49:20;;;;;;;13.30;7.70;;;;;;;-2.89;92.63;97905.17;422186;1287;97885;-39
2022/12/13 01:59:28;;;;;;;16.60;8.90;;;;;;;-2.97;92.66;97917.22;422157;1288;110866;-39
2022/12/13 02:09:37;;;;;;;18.20;9.30;;;;;;;-3.03;92.57;97921.71;422228;1288;109076;-39
2022/12/13 02:20:23;;;;;;;15.60;9.90;;;;;;;-3.12;92.57;97919.85;422137;1285;97491;-39
2022/12/13 02:30:29;;;;;;;13.70;9.80;;;;;;;-3.11;92.35;97926.27;423192;1266;108016;-39
2022/12/13 02:40:38;;;;;;;14.20;8.80;;;;;;;-3.07;92.30;97933.45;421946;1286;398656;-40
2022/12/13 02:50:48;;;;;;;11.60;8.00;;;;;;;-3.01;92.35;97936.16;422224;1280;97845;-39
2022/12/13 03:00:53;;;;;;;;;;;;;;;-3.04;92.62;97937.01;422245;1296;107958;-39
2022/12/13 03:11:01;;;;;;;17.30;9.60;;;;;;;-3.15;92.56;97940.11;422183;1296;97889;-39
2022/12/13 03:31:15;;;;;;;17.10;11.60;;;;;;;-3.26;92.10;97945.11;422096;1298;108412;-38
2022/12/13 03:41:23;;;;;;;12.70;7.50;;;;;;;-3.18;92.42;97948.73;422162;1287;97992;-39
2022/12/13 03:51:30;;;;;;;16.10;9.60;;;;;;;-3.12;92.48;97950.36;422227;1296;110164;-40
2022/12/13 04:01:37;;;;;;;14.10;8.90;;;;;;;-3.08;92.70;97943.67;422240;1287;108230;-39
2022/12/13 04:22:10;;;;;;;18.40;9.60;;;;;;;-3.28;92.34;97958.55;422122;1294;110761;-39
2022/12/13 04:32:17;;;;;;;14.20;8.10;;;;;;;-3.34;92.38;97964.73;422237;1295;111523;-39
2022/12/13 04:42:33;;;;;;;18.90;12.40;;;;;;;-3.31;92.48;97965.95;422241;1287;97336;-39
2022/12/13 04:52:40;;;;;;;16.80;9.80;;;;;;;-3.23;92.23;97959.44;422149;1281;109556;-40
2022/12/13 05:02:46;;;;;;;23.30;12.00;;;;;;;-3.13;92.33;97959.86;422050;1287;109380;-39
2022/12/13 05:23:00;;;;;;;46.80;19.80;;;;;;;-3.20;92.69;97969.81;422183;1295;110248;-40
2022/12/13 05:33:06;;;;;;;30.10;14.50;;;;;;;-3.24;92.61;97972.10;422041;1296;107280;-39
2022/12/13 05:43:12;;;;;;;45.20;21.50;;;;;;;-3.30;92.36;97971.89;422299;1287;97940;-39
2022/12/13 05:53:27;;;;;;;27.70;15.00;;;;;;;-3.30;92.39;97977.20;422105;1298;111736;-40
2022/12/13 06:03:35;;;;;;;;;;;;;;;-3.20;92.22;97982.90;422141;1288;107800;-40
2022/12/13 06:13:41;;;;;;;31.00;16.60;;;;;;;-3.15;92.30;97983.94;422165;1294;97502;-39
2022/12/13 06:23:49;;;;;;;60.90;25.70;;;;;;;-3.10;92.59;97989.98;422193;1296;107695;-39
2022/12/13 06:34:01;;;;;;;58.30;20.30;;;;;;;-3.18;92.47;97995.11;422223;1296;97848;-39
2022/12/13 06:44:21;;;;;;;49.40;24.70;;;;;;;-3.21;92.34;98013.15;422099;1286;97421;-39
2022/12/13 06:54:28;;;;;;;17.60;10.90;;;;;;;-3.31;92.19;98025.05;422150;1286;109572;-38
2022/12/13 07:04:35;;;;;;;13.50;8.70;;;;;;;-3.34;91.74;98032.30;422178;1296;107591;-40
2022/12/13 07:14:45;;;;;;;27.20;9.70;;;;;;;-3.39;91.67;98053.58;422049;1289;97886;-38
2022/12/13 07:24:52;;;;;;;14.80;7.50;;;;;;;-3.64;91.23;98072.52;422193;1296;108710;-38
2022/12/13 07:34:59;;;;;;;15.40;6.90;;;;;;;-3.84;91.08;98077.64;422102;1289;96675;-39
2022/12/13 07:45:07;;;;;;;13.40;6.50;;;;;;;-3.78;90.90;98091.14;422047;1296;110835;-39
2022/12/13 07:55:17;;;;;;;28.90;11.50;;;;;;;-3.60;90.94;98097.67;422080;1296;108130;-39
2022/12/13 08:05:29;;;;;;;47.00;18.80;;;;;;;-3.40;90.86;98096.48;422267;1296;97803;-40
2022/12/13 08:15:45;;;;;;;29.10;11.50;;;;;;;-3.43;90.59;98100.86;422250;1296;109837;-41
2022/12/13 08:25:56;;;;;;;74.30;27.10;;;;;;;-3.39;90.83;98098.04;422023;1296;107522;-40
2022/12/13 08:36:14;;;;;;;25.20;11.00;;;;;;;-1.71;91.39;98102.13;422131;1289;97755;-39
2022/12/13 08:46:20;;;;;;;15.00;7.70;;;;;;;-1.37;90.66;98108.20;422257;1296;110286;-39
2022/12/13 08:56:28;;;;;;;17.10;8.50;;;;;;;-1.08;90.01;98107.16;422213;1296;108838;-39
2022/12/13 09:06:34;;;;;;;20.30;10.00;;;;;;;-1.99;88.87;98114.23;422069;1292;97882;-39
2022/12/13 09:16:41;;;;;;;28.20;10.20;;;;;;;-2.40;89.22;98112.04;422168;1296;97478;-40
2022/12/13 09:26:57;;;;;;;35.80;14.70;;;;;;;-2.49;89.13;98115.53;422216;1298;111048;-40
2022/12/13 09:37:05;;;;;;;28.10;13.30;;;;;;;-2.57;88.90;98118.46;422070;1288;108083;-40
2022/12/13 09:47:14;;;;;;;30.50;13.30;;;;;;;-2.61;88.58;98123.51;422186;1287;97802;-39
2022/12/13 09:57:32;;;;;;;50.80;21.30;;;;;;;-2.63;88.93;98118.94;422179;1288;108084;-39
2022/12/13 10:07:41;;;;;;;46.60;20.40;;;;;;;-2.73;88.38;98116.20;422145;1294;96688;-40
2022/12/13 10:17:50;;;;;;;44.00;16.70;;;;;;;-2.56;88.72;98110.83;422107;1295;97982;-39
2022/12/13 10:28:05;;;;;;;30.00;15.10;;;;;;;-2.32;88.43;98107.72;422196;1298;112207;-39
2022/12/13 10:38:26;;;;;;;15.70;8.20;;;;;;;-2.02;87.93;98108.73;422064;1287;106876;-40
2022/12/13 10:48:46;;;;;;;20.30;10.10;;;;;;;-1.91;87.41;98108.23;422121;1287;97900;-39
2022/12/13 11:09:24;;;;;;;21.20;9.30;;;;;;;-2.54;87.34;98101.48;422812;1296;97391;-41
2022/12/13 11:19:35;;;;;;;30.80;12.40;;;;;;;-2.92;86.89;98095.52;422190;1296;97975;-38
2022/12/13 11:29:55;;;;;;;26.30;12.40;;;;;;;-2.85;86.95;98090.19;422214;1296;108976;-40
2022/12/13 11:40:05;;;;;;;10.60;6.60;;;;;;;-2.72;86.87;98089.45;422118;1284;107919;-40
2022/12/13 11:50:14;;;;;;;12.00;7.40;;;;;;;-2.60;86.19;98088.21;421964;1296;97507;-39
2022/12/13 12:00:45;;;;;;;21.70;10.30;;;;;;;-2.43;86.98;98094.38;422151;1294;110476;-40
2022/12/13 12:10:56;;;;;;;19.30;10.20;;;;;;;-2.41;86.33;98100.74;422149;1296;108179;-40
2022/12/13 12:31:13;;;;;;;25.90;11.40;;;;;;;-2.35;86.49;98102.58;422259;1290;96679;-39
2022/12/13 12:41:29;;;;;;;25.20;14.00;;;;;;;-2.50;86.43;98101.48;422111;1297;110919;-40
2022/12/13 12:51:35;;;;;;;17.50;9.70;;;;;;;-2.67;86.39;98102.98;422134;1296;108807;-38
2022/12/13 13:32:36;;;;;;;39.60;18.50;;;;;;;-2.96;87.10;98126.35;422248;1287;109500;-40
2022/12/13 13:43:07;;;;;;;43.30;17.50;;;;;;;-3.02;87.06;98127.65;422198;1296;108611;-39
2022/12/13 13:53:45;;;;;;;43.50;21.80;;;;;;;-3.25;87.09;98134.92;422263;1296;97775;-39
2022/12/13 14:04:13;;;;;;;38.10;18.10;;;;;;;-3.27;87.20;98146.32;422182;1295;109476;-40
2022/12/13 14:14:50;;;;;;;35.90;19.40;;;;;;;-3.48;86.81;98154.51;422159;1295;107484;-38
2022/12/13 14:24:56;;;;;;;33.20;17.30;;;;;;;-3.54;86.93;98157.85;422325;1287;96692;-38
2022/12/13 14:35:03;;;;;;;45.90;24.10;;;;;;;-3.71;87.09;98161.06;422051;1296;254035;-40
2022/12/13 14:45:30;;;;;;;65.80;27.70;;;;;;;-4.03;86.91;98163.98;422128;1288;107518;-39
2022/12/13 14:55:37;;;;;;;56.40;25.80;;;;;;;-4.45;86.93;98172.94;422277;1287;97867;-40
2022/12/13 15:05:47;;;;;;;60.20;28.30;;;;;;;-4.75;86.96;98181.78;422280;1288;109735;-40
2022/12/13 15:15:54;;;;;;;49.80;23.40;;;;;;;-4.84;87.36;98189.69;422241;1289;107228;-39
2022/12/13 15:26:08;;;;;;;45.50;22.00;;;;;;;-5.09;86.93;98196.48;422214;1292;97860;-40
2022/12/13 15:36:18;;;;;;;59.60;31.70;;;;;;;-5.30;86.68;98201.71;422184;1298;107682;-39
2022/12/13 15:46:25;;;;;;;59.10;29.10;;;;;;;-5.41;86.78;98201.29;422197;1279;97899;-40
2022/12/13 16:06:37;;;;;;;65.10;31.90;;;;;;;-5.64;86.46;98198.59;422200;1285;109948;-39
2022/12/13 16:16:44;;;;;;;90.90;42.10;;;;;;;-5.80;86.55;98196.81;422251;1288;96783;-39
2022/12/13 16:26:52;;;;;;;108.40;49.50;;;;;;;-5.98;86.71;98199.05;422113;1295;107421;-38
2022/12/13 16:36:59;;;;;;;108.00;52.20;;;;;;;-6.04;86.75;98192.28;422236;1294;97962;-38
2022/12/13 16:47:04;;;;;;;149.00;68.90;;;;;;;-6.17;86.65;98198.60;422206;1287;110926;-38
2022/12/13 16:57:23;;;;;;;160.30;74.90;;;;;;;-6.40;86.65;98210.52;422083;1295;108033;-38
2022/12/13 17:07:30;;;;;;;171.60;82.70;;;;;;;-6.61;86.48;98223.46;423107;1296;97765;-40
2022/12/13 17:17:36;;;;;;;155.30;71.70;;;;;;;-6.78;86.43;98222.88;422226;1289;107435;-39
2022/12/13 17:37:51;;;;;;;134.70;60.10;;;;;;;-6.89;86.64;98240.98;422187;1279;108793;-39
2022/12/13 17:47:58;;;;;;;117.60;54.90;;;;;;;-6.90;86.71;98239.98;422116;1279;109171;-38
2022/12/13 17:58:06;;;;;;;109.10;54.50;;;;;;;-6.95;86.61;98239.59;422239;1287;97998;-39
2022/12/13 18:08:13;;;;;;;113.60;51.10;;;;;;;-7.04;86.52;98244.83;422032;1288;108285;-39
2022/12/13 18:18:21;;;;;;;151.80;66.40;;;;;;;-7.13;86.52;98249.96;422222;1288;97829;-40
2022/12/13 18:28:29;;;;;;;136.30;65.40;;;;;;;-7.29;86.37;98257.73;422309;1288;108955;-41
2022/12/13 18:38:37;;;;;;;128.10;60.10;;;;;;;-7.33;86.66;98264.89;422124;1287;108535;-38
2022/12/13 18:48:45;;;;;;;124.70;63.60;;;;;;;-7.34;86.60;98259.15;422143;1287;97851;-39
2022/12/13 18:58:53;;;;;;;138.30;67.10;;;;;;;-7.49;86.48;98264.15;422211;1296;108527;-39
2022/12/13 19:08:59;;;;;;;160.60;74.90;;;;;;;-7.64;86.49;98266.04;422184;1296;97873;-40
2022/12/13 19:39:20;;;;;;;286.30;123.10;;;;;;;-8.05;86.36;98269.53;422181;1287;97857;-39
2022/12/13 19:49:27;;;;;;;282.90;126.50;;;;;;;-8.19;86.37;98269.09;422188;1295;108591;-38
2022/12/13 19:59:33;;;;;;;360.70;168.10;;;;;;;-8.30;86.11;98271.66;422201;1294;97876;-39
2022/12/13 20:09:40;;;;;;;364.60;167.20;;;;;;;-8.37;86.26;98274.63;422232;1294;110035;-40
2022/12/13 20:19:47;;;;;;;280.80;124.80;;;;;;;-8.56;86.02;98276.46;422407;1288;106660;-38
2022/12/13 20:29:55;;;;;;;283.30;127.80;;;;;;;-8.71;86.05;98278.26;422223;1279;97915;-39
2022/12/13 20:40:02;;;;;;;282.50;127.60;;;;;;;-8.76;86.07;98279.02;422148;1295;108210;-39
2022/12/13 20:50:09;;;;;;;299.90;135.70;;;;;;;-8.81;86.19;98282.33;422176;1295;97905;-39
2022/12/13 21:00:18;;;;;;;311.70;141.80;;;;;;;-8.82;86.29;98283.74;422173;1290;109469;-40
2022/12/13 21:20:32;;;;;;;334.70;145.60;;;;;;;-8.82;85.98;98285.77;422094;1287;97908;-38
2022/12/13 21:30:39;;;;;;;315.00;135.70;;;;;;;-8.91;86.16;98299.69;422340;1287;108009;-39
2022/12/13 21:40:51;;;;;;;327.10;141.00;;;;;;;-8.95;85.99;98300.15;422345;1287;97867;-38
2022/12/13 21:50:58;;;;;;;334.60;142.40;;;;;;;-8.98;86.16;98292.66;422347;1298;109979;-39
2022/12/13 22:01:04;;;;;;;369.60;145.30;;;;;;;-8.90;86.39;98298.20;422140;1287;108090;-39
2022/12/13 22:11:14;;;;;;;399.10;159.10;;;;;;;-8.79;86.31;98289.17;422026;1287;97486;-40
2022/12/13 22:21:27;;;;;;;447.30;185.10;;;;;;;-8.83;85.99;98278.98;422160;1287;108783;-39
2022/12/13 22:31:34;;;;;;;397.80;170.20;;;;;;;-9.00;85.91;98276.42;422119;1288;97503;-40
2022/12/13 22:41:41;;;;;;;339.30;153.20;;;;;;;-8.92;86.23;98268.31;422069;1281;110138;-39
2022/12/13 22:51:48;;;;;;;273.80;125.50;;;;;;;-8.71;86.43;98263.41;422001;1293;107457;-40
2022/12/13 23:01:56;;;;;;;246.60;111.90;;;;;;;-8.38;86.73;98266.16;422168;1288;97481;-39
2022/12/13 23:22:31;;;;;;;186.20;88.40;;;;;;;-8.01;86.62;98253.15;422213;1296;97019;-39
2022/12/13 23:32:39;;;;;;;201.70;89.00;;;;;;;-7.97;86.68;98248.00;422088;1280;109916;-40
2022/12/13 23:42:46;;;;;;;241.40;109.00;;;;;;;-7.91;86.71;98232.29;422122;1294;108323;-39
2022/12/13 23:52:53;;;;;;;228.40;106.10;;;;;;;-7.91;86.62;98223.95;422272;1288;97905;-40
